Time;durP1;ratioP1;P1;durP2;ratioP2;P2;SDS_P1;SDS_P2;PMS_P1;PMS_P2;Temp;Humidity;BMP_temperature;BMP_pressure;BME280_temperature;BME280_humidity;BME280_pressure;Samples;Min_cycle;Max_cycle;Signal;HPM_P1;HPM_P2
2023/06/21 00:02:13;;;;;;;0.70;0.70;;;;;;;;;;5073600;28;20463;-78
2023/06/21 00:04:39;;;;;;;0.70;0.70;;;;;;;;;;5059945;28;20439;-79
2023/06/21 00:07:07;;;;;;;1.07;0.97;;;;;;;;;;5069749;28;20492;-79
2023/06/21 00:09:33;;;;;;;0.80;0.80;;;;;;;;;;5059739;28;20989;-79
2023/06/21 00:12:00;;;;;;;0.73;0.73;;;;;;;;;;5072233;28;20497;-79
2023/06/21 00:14:27;;;;;;;0.80;0.70;;;;;;;;;;5054420;28;20484;-80
2023/06/21 00:16:53;;;;;;;1.10;0.93;;;;;;;;;;5071534;28;20501;-80
2023/06/21 00:19:20;;;;;;;0.80;0.77;;;;;;;;;;5059411;28;20471;-79
2023/06/21 00:21:47;;;;;;;6.47;1.23;;;;;;;;;;5078982;28;20525;-80
2023/06/21 00:24:15;;;;;;;1.00;0.97;;;;;;;;;;5070698;28;20465;-79
2023/06/21 00:26:42;;;;;;;0.77;0.70;;;;;;;;;;5068035;28;20443;-80
2023/06/21 00:29:12;;;;;;;0.70;0.70;;;;;;;;;;5074603;28;20505;-79
2023/06/21 00:31:39;;;;;;;0.80;0.80;;;;;;;;;;5054073;28;21066;-80
2023/06/21 00:34:06;;;;;;;2.83;2.60;;;;;;;;;;5074588;28;20465;-80
2023/06/21 00:36:32;;;;;;;0.77;0.70;;;;;;;;;;5076567;28;20451;-79
2023/06/21 00:38:59;;;;;;;0.80;0.70;;;;;;;;;;5074692;28;20960;-79
2023/06/21 00:41:27;;;;;;;0.80;0.70;;;;;;;;;;5072234;28;20451;-78
2023/06/21 00:43:53;;;;;;;0.80;0.80;;;;;;;;;;5073590;28;20546;-78
2023/06/21 00:46:21;;;;;;;0.80;0.70;;;;;;;;;;5070137;28;20947;-79
2023/06/21 00:48:50;;;;;;;0.70;0.60;;;;;;;;;;5056225;28;20459;-79
2023/06/21 00:51:18;;;;;;;0.70;0.60;;;;;;;;;;5069266;28;20532;-75
2023/06/21 00:53:45;;;;;;;0.80;0.77;;;;;;;;;;5077946;28;20468;-80
2023/06/21 00:56:13;;;;;;;0.80;0.80;;;;;;;;;;5066157;28;20432;-80
2023/06/21 00:58:41;;;;;;;0.77;0.70;;;;;;;;;;5066281;28;20443;-78
2023/06/21 01:01:07;;;;;;;0.80;0.77;;;;;;;;;;5053368;28;20447;-79
2023/06/21 01:03:35;;;;;;;0.80;0.80;;;;;;;;;;5079360;28;20526;-80
2023/06/21 01:06:09;;;;;;;0.80;0.80;;;;;;;;;;5063145;28;20451;-80
2023/06/21 01:08:40;;;;;;;1.00;0.90;;;;;;;;;;5073861;28;20953;-79
2023/06/21 01:11:12;;;;;;;0.90;0.90;;;;;;;;;;5076972;28;20551;-79
2023/06/21 01:13:46;;;;;;;0.80;0.70;;;;;;;;;;5062873;28;21033;-79
2023/06/21 01:16:14;;;;;;;0.70;0.70;;;;;;;;;;5071730;28;20836;-80
2023/06/21 01:18:45;;;;;;;0.80;0.70;;;;;;;;;;5072914;28;20871;-80
2023/06/21 01:21:16;;;;;;;2.90;1.40;;;;;;;;;;5059720;28;20530;-79
2023/06/21 01:23:58;;;;;;;0.70;0.60;;;;;;;;;;5076998;28;20538;-79
2023/06/21 01:26:38;;;;;;;0.80;0.70;;;;;;;;;;5053058;28;20901;-80
2023/06/21 01:29:08;;;;;;;0.70;0.60;;;;;;;;;;5074734;28;20904;-79
2023/06/21 01:31:36;;;;;;;0.70;0.70;;;;;;;;;;5057818;28;21026;-80
2023/06/21 01:34:03;;;;;;;1.00;0.90;;;;;;;;;;5071458;28;20950;-80
2023/06/21 01:36:30;;;;;;;0.80;0.80;;;;;;;;;;5067172;28;20444;-79
2023/06/21 01:38:56;;;;;;;0.80;0.80;;;;;;;;;;5076350;28;20446;-79
2023/06/21 01:41:25;;;;;;;0.70;0.70;;;;;;;;;;5048866;28;20447;-80
2023/06/21 01:43:56;;;;;;;1.10;1.00;;;;;;;;;;5074510;28;20430;-80
2023/06/21 01:46:25;;;;;;;0.70;0.67;;;;;;;;;;5057020;28;20488;-79
2023/06/21 01:48:52;;;;;;;0.80;0.73;;;;;;;;;;5061297;28;20581;-80
2023/06/21 01:51:21;;;;;;;0.80;0.70;;;;;;;;;;5053257;28;20486;-80
2023/06/21 01:53:48;;;;;;;0.80;0.80;;;;;;;;;;5073428;28;20578;-80
2023/06/21 01:56:16;;;;;;;0.70;0.70;;;;;;;;;;5067624;28;20464;-79
2023/06/21 01:58:42;;;;;;;1.20;0.80;;;;;;;;;;5066737;28;20853;-79
2023/06/21 02:01:10;;;;;;;0.80;0.80;;;;;;;;;;5070672;28;20497;-80
2023/06/21 02:03:40;;;;;;;0.80;0.80;;;;;;;;;;5071080;28;20465;-79
2023/06/21 02:06:07;;;;;;;0.73;0.70;;;;;;;;;;5064769;28;20472;-80
2023/06/21 02:08:34;;;;;;;0.80;0.70;;;;;;;;;;5074334;28;20884;-80
2023/06/21 02:11:01;;;;;;;0.80;0.80;;;;;;;;;;5066794;28;20463;-80
2023/06/21 02:13:28;;;;;;;0.80;0.70;;;;;;;;;;5067915;28;20462;-80
2023/06/21 02:15:54;;;;;;;0.70;0.70;;;;;;;;;;5051793;28;20447;-80
2023/06/21 02:18:22;;;;;;;0.70;0.60;;;;;;;;;;5064657;28;20466;-78
2023/06/21 02:20:50;;;;;;;0.90;0.90;;;;;;;;;;5069984;28;20450;-78
2023/06/21 02:23:18;;;;;;;0.80;0.80;;;;;;;;;;5064891;28;20448;-79
2023/06/21 02:25:44;;;;;;;0.70;0.60;;;;;;;;;;5067114;28;20466;-79
2023/06/21 02:28:11;;;;;;;0.80;0.70;;;;;;;;;;5070075;28;20444;-79
2023/06/21 02:30:37;;;;;;;0.80;0.70;;;;;;;;;;5060818;28;20995;-80
2023/06/21 02:33:04;;;;;;;0.80;0.73;;;;;;;;;;5066921;28;20506;-80
2023/06/21 02:35:31;;;;;;;0.87;0.87;;;;;;;;;;5067884;28;20506;-79
2023/06/21 02:38:00;;;;;;;0.70;0.70;;;;;;;;;;5045718;28;20474;-80
2023/06/21 02:40:27;;;;;;;0.70;0.70;;;;;;;;;;5061445;28;20442;-80
2023/06/21 02:42:54;;;;;;;0.80;0.80;;;;;;;;;;5062522;28;20932;-81
2023/06/21 02:45:21;;;;;;;0.70;0.67;;;;;;;;;;5059341;28;21038;-79
2023/06/21 02:47:47;;;;;;;0.90;0.90;;;;;;;;;;5064483;28;20447;-79
2023/06/21 02:50:16;;;;;;;0.70;0.60;;;;;;;;;;5055387;28;20491;-79
2023/06/21 02:52:43;;;;;;;0.70;0.70;;;;;;;;;;5067675;28;20565;-79
2023/06/21 02:55:11;;;;;;;0.80;0.70;;;;;;;;;;5071696;28;20465;-81
2023/06/21 02:57:37;;;;;;;0.70;0.63;;;;;;;;;;5066159;28;20515;-78
2023/06/21 03:00:18;;;;;;;0.80;0.80;;;;;;;;;;5063043;28;20493;-78
2023/06/21 03:02:46;;;;;;;0.80;0.70;;;;;;;;;;5048914;28;20455;-81
2023/06/21 03:05:12;;;;;;;0.80;0.70;;;;;;;;;;5052229;28;20449;-79
2023/06/21 03:07:43;;;;;;;0.80;0.80;;;;;;;;;;5053197;28;20547;-80
2023/06/21 03:10:13;;;;;;;0.70;0.70;;;;;;;;;;5056244;28;20504;-80
2023/06/21 03:12:40;;;;;;;0.80;0.80;;;;;;;;;;5061185;28;20499;-80
2023/06/21 03:15:08;;;;;;;0.80;0.80;;;;;;;;;;5064042;28;20450;-80
2023/06/21 03:17:35;;;;;;;0.80;0.80;;;;;;;;;;5068211;28;20513;-80
2023/06/21 03:20:03;;;;;;;0.70;0.70;;;;;;;;;;5064917;28;20441;-77
2023/06/21 03:22:30;;;;;;;0.80;0.77;;;;;;;;;;5049776;28;20525;-78
2023/06/21 03:24:56;;;;;;;0.80;0.80;;;;;;;;;;5051787;28;20452;-78
2023/06/21 03:27:25;;;;;;;0.93;0.93;;;;;;;;;;5064161;28;20516;-78
2023/06/21 03:29:51;;;;;;;1.10;1.10;;;;;;;;;;5068479;28;20504;-80
2023/06/21 03:32:19;;;;;;;0.70;0.70;;;;;;;;;;5063268;28;20501;-81
2023/06/21 03:34:46;;;;;;;0.80;0.80;;;;;;;;;;5052883;28;20450;-79
2023/06/21 03:37:13;;;;;;;0.90;0.90;;;;;;;;;;5064657;28;20480;-78
2023/06/21 03:39:40;;;;;;;0.80;0.70;;;;;;;;;;5068512;28;20455;-81
2023/06/21 03:42:10;;;;;;;0.80;0.70;;;;;;;;;;5067030;28;20528;-80
2023/06/21 03:44:38;;;;;;;0.90;0.90;;;;;;;;;;5046852;28;20494;-80
2023/06/21 03:47:05;;;;;;;2.17;1.00;;;;;;;;;;5061837;28;20453;-78
2023/06/21 03:49:32;;;;;;;0.80;0.80;;;;;;;;;;5047307;28;20455;-79
2023/06/21 03:51:59;;;;;;;0.70;0.70;;;;;;;;;;5045917;28;20555;-81
2023/06/21 03:54:26;;;;;;;0.70;0.70;;;;;;;;;;5050404;28;20937;-79
2023/06/21 03:56:52;;;;;;;1.13;1.07;;;;;;;;;;5071883;28;20455;-80
2023/06/21 03:59:19;;;;;;;0.77;0.70;;;;;;;;;;5068353;28;20495;-80
2023/06/21 04:01:47;;;;;;;0.80;0.70;;;;;;;;;;5072463;28;20466;-81
2023/06/21 04:04:14;;;;;;;0.80;0.70;;;;;;;;;;5074610;28;20437;-78
2023/06/21 04:06:40;;;;;;;0.80;0.80;;;;;;;;;;5078053;28;20510;-77
2023/06/21 04:09:07;;;;;;;0.80;0.80;;;;;;;;;;5078328;28;20493;-79
2023/06/21 04:11:34;;;;;;;0.70;0.70;;;;;;;;;;5074141;28;20995;-77
2023/06/21 04:14:00;;;;;;;1.43;1.23;;;;;;;;;;5065207;28;20485;-79
2023/06/21 04:16:27;;;;;;;0.70;0.63;;;;;;;;;;5067095;28;20526;-78
2023/06/21 04:18:55;;;;;;;0.73;0.70;;;;;;;;;;5071819;28;20869;-78
2023/06/21 04:21:23;;;;;;;1.17;1.07;;;;;;;;;;5077010;28;20454;-78
2023/06/21 04:23:50;;;;;;;0.90;0.90;;;;;;;;;;5072645;28;20443;-79
2023/06/21 04:26:17;;;;;;;1.10;1.00;;;;;;;;;;5066297;28;20431;-78
2023/06/21 04:28:48;;;;;;;0.90;0.90;;;;;;;;;;5061817;28;20449;-78
2023/06/21 04:31:14;;;;;;;4.17;0.90;;;;;;;;;;5069598;28;20471;-79
2023/06/21 04:33:41;;;;;;;0.93;0.87;;;;;;;;;;5067349;28;20471;-79
2023/06/21 04:36:09;;;;;;;0.87;0.80;;;;;;;;;;5072960;28;20535;-78
2023/06/21 04:38:37;;;;;;;1.20;1.10;;;;;;;;;;5064743;28;20486;-76
2023/06/21 04:41:03;;;;;;;0.90;0.90;;;;;;;;;;5068044;28;20495;-78
2023/06/21 04:43:30;;;;;;;0.77;0.70;;;;;;;;;;5063496;28;20440;-79
2023/06/21 04:45:58;;;;;;;0.77;0.70;;;;;;;;;;5068559;28;20474;-80
2023/06/21 04:48:24;;;;;;;1.00;1.00;;;;;;;;;;5066923;28;20435;-79
2023/06/21 04:50:51;;;;;;;0.80;0.80;;;;;;;;;;5077585;28;20458;-78
2023/06/21 04:53:19;;;;;;;0.87;0.87;;;;;;;;;;5070612;28;20471;-79
2023/06/21 04:55:46;;;;;;;0.80;0.70;;;;;;;;;;5074331;28;20443;-77
2023/06/21 04:58:15;;;;;;;0.70;0.70;;;;;;;;;;5071453;28;20485;-78
2023/06/21 05:00:42;;;;;;;0.80;0.73;;;;;;;;;;5074857;28;20539;-80
2023/06/21 05:03:08;;;;;;;0.80;0.80;;;;;;;;;;5071247;28;20468;-79
2023/06/21 05:05:36;;;;;;;0.80;0.80;;;;;;;;;;5067623;28;20454;-75
2023/06/21 05:08:04;;;;;;;1.00;1.00;;;;;;;;;;5073040;28;20464;-79
2023/06/21 05:10:34;;;;;;;0.73;0.70;;;;;;;;;;5069685;28;20432;-79
2023/06/21 05:13:01;;;;;;;0.77;0.70;;;;;;;;;;5070890;28;20460;-78
2023/06/21 05:15:28;;;;;;;0.80;0.80;;;;;;;;;;5074054;28;20490;-76
2023/06/21 05:17:55;;;;;;;1.10;1.00;;;;;;;;;;5060056;28;20597;-79
2023/06/21 05:20:22;;;;;;;0.80;0.80;;;;;;;;;;5057657;28;20435;-80
2023/06/21 05:22:51;;;;;;;1.10;1.00;;;;;;;;;;5064254;28;20484;-79
2023/06/21 05:25:18;;;;;;;1.20;1.10;;;;;;;;;;5071124;28;20454;-78
2023/06/21 05:27:47;;;;;;;0.83;0.83;;;;;;;;;;5062671;28;20459;-79
2023/06/21 05:30:14;;;;;;;0.73;0.70;;;;;;;;;;5068374;28;20461;-78
2023/06/21 05:32:40;;;;;;;0.80;0.77;;;;;;;;;;5071043;28;20443;-77
2023/06/21 05:35:07;;;;;;;0.90;0.90;;;;;;;;;;5067536;28;20451;-78
2023/06/21 05:37:34;;;;;;;0.80;0.70;;;;;;;;;;5070241;28;20490;-79
2023/06/21 05:40:02;;;;;;;0.70;0.70;;;;;;;;;;5057085;28;20866;-77
2023/06/21 05:42:29;;;;;;;0.77;0.77;;;;;;;;;;5063077;28;20436;-79
2023/06/21 05:44:57;;;;;;;0.70;0.70;;;;;;;;;;5061516;28;20625;-79
2023/06/21 05:47:25;;;;;;;1.73;1.63;;;;;;;;;;5072972;28;20451;-79
2023/06/21 05:49:52;;;;;;;0.80;0.77;;;;;;;;;;5067157;28;20425;-80
2023/06/21 05:52:20;;;;;;;0.80;0.80;;;;;;;;;;5060429;28;20482;-75
2023/06/21 05:54:47;;;;;;;3.03;1.10;;;;;;;;;;5069189;28;20501;-80
2023/06/21 05:57:15;;;;;;;0.80;0.80;;;;;;;;;;5068870;28;21022;-76
2023/06/21 05:59:43;;;;;;;0.70;0.70;;;;;;;;;;5060921;28;20445;-77
2023/06/21 06:02:10;;;;;;;1.20;1.00;;;;;;;;;;5068892;28;20428;-77
2023/06/21 06:04:39;;;;;;;0.80;0.80;;;;;;;;;;5065402;28;20515;-78
2023/06/21 06:07:05;;;;;;;0.80;0.80;;;;;;;;;;5067656;28;20460;-78
2023/06/21 06:09:32;;;;;;;0.87;0.87;;;;;;;;;;5066464;28;20482;-77
2023/06/21 06:12:02;;;;;;;1.00;0.90;;;;;;;;;;5045941;28;20418;-76
2023/06/21 06:14:31;;;;;;;0.80;0.70;;;;;;;;;;5061211;28;20473;-77
2023/06/21 06:16:57;;;;;;;0.80;0.80;;;;;;;;;;5069998;28;20490;-76
2023/06/21 06:19:25;;;;;;;2.20;2.00;;;;;;;;;;5061803;28;20402;-76
2023/06/21 06:21:52;;;;;;;1.73;1.53;;;;;;;;;;5068374;28;20964;-77
2023/06/21 06:24:19;;;;;;;0.70;0.70;;;;;;;;;;5063354;28;20444;-76
2023/06/21 06:26:46;;;;;;;0.80;0.80;;;;;;;;;;5060686;28;20486;-78
2023/06/21 06:29:14;;;;;;;1.43;1.10;;;;;;;;;;5068082;28;20963;-78
2023/06/21 06:31:41;;;;;;;1.17;1.07;;;;;;;;;;5048537;28;21029;-78
2023/06/21 06:34:08;;;;;;;1.10;1.00;;;;;;;;;;5067361;28;20472;-77
2023/06/21 06:36:36;;;;;;;0.80;0.73;;;;;;;;;;5061539;28;20818;-78
2023/06/21 06:39:03;;;;;;;0.93;0.83;;;;;;;;;;5056742;28;20950;-78
2023/06/21 06:41:30;;;;;;;1.57;1.47;;;;;;;;;;5064597;28;20419;-78
2023/06/21 06:44:02;;;;;;;0.80;0.70;;;;;;;;;;5068642;28;20424;-76
2023/06/21 06:46:29;;;;;;;0.70;0.70;;;;;;;;;;5052887;28;20435;-76
2023/06/21 06:48:56;;;;;;;0.70;0.70;;;;;;;;;;5063458;28;20428;-79
2023/06/21 06:51:23;;;;;;;0.90;0.90;;;;;;;;;;5061243;28;20830;-77
2023/06/21 06:53:51;;;;;;;0.93;0.90;;;;;;;;;;5062663;28;20441;-78
2023/06/21 06:56:17;;;;;;;1.47;1.37;;;;;;;;;;5057972;28;20458;-78
2023/06/21 06:58:44;;;;;;;1.00;0.90;;;;;;;;;;5061609;28;20418;-79
2023/06/21 07:01:11;;;;;;;1.63;1.53;;;;;;;;;;5066510;28;20467;-78
2023/06/21 07:03:38;;;;;;;0.80;0.80;;;;;;;;;;5060439;28;20407;-78
2023/06/21 07:06:04;;;;;;;0.70;0.70;;;;;;;;;;5067300;28;20470;-79
2023/06/21 07:08:31;;;;;;;0.70;0.70;;;;;;;;;;5053260;28;20481;-79
2023/06/21 07:10:59;;;;;;;0.80;0.80;;;;;;;;;;5061617;28;20428;-79
2023/06/21 07:13:26;;;;;;;1.07;0.97;;;;;;;;;;5051921;28;20820;-77
2023/06/21 07:15:53;;;;;;;0.80;0.80;;;;;;;;;;5060417;28;20855;-78
2023/06/21 07:18:22;;;;;;;1.00;0.93;;;;;;;;;;5064817;28;20497;-78
2023/06/21 07:20:48;;;;;;;0.90;0.90;;;;;;;;;;5051296;28;20452;-79
2023/06/21 07:23:15;;;;;;;1.10;1.00;;;;;;;;;;5056688;28;20843;-78
2023/06/21 07:25:42;;;;;;;0.80;0.70;;;;;;;;;;5047278;28;20444;-79
2023/06/21 07:28:11;;;;;;;1.17;0.80;;;;;;;;;;5064030;28;20763;-78
2023/06/21 07:30:37;;;;;;;1.10;1.00;;;;;;;;;;5063293;28;20794;-77
2023/06/21 07:33:04;;;;;;;1.37;1.27;;;;;;;;;;5058073;28;20436;-81
2023/06/21 07:35:31;;;;;;;1.00;0.87;;;;;;;;;;5047534;28;20512;-80
2023/06/21 07:37:58;;;;;;;0.80;0.80;;;;;;;;;;5065518;28;20430;-80
2023/06/21 07:40:25;;;;;;;0.80;0.80;;;;;;;;;;5067178;28;20933;-81
2023/06/21 07:42:52;;;;;;;0.80;0.80;;;;;;;;;;5063510;28;20410;-81
2023/06/21 07:45:21;;;;;;;0.80;0.73;;;;;;;;;;5059635;28;20414;-79
2023/06/21 07:47:47;;;;;;;1.17;0.90;;;;;;;;;;5068915;28;20418;-79
2023/06/21 07:50:16;;;;;;;1.27;1.13;;;;;;;;;;5070289;28;21607;-79
2023/06/21 07:52:48;;;;;;;0.70;0.70;;;;;;;;;;5055796;28;20895;-79
2023/06/21 07:55:15;;;;;;;0.80;0.70;;;;;;;;;;5069876;28;20561;-80
2023/06/21 07:57:43;;;;;;;1.20;1.10;;;;;;;;;;5070631;28;20437;-80
2023/06/21 08:00:11;;;;;;;1.47;0.97;;;;;;;;;;5054561;28;20430;-79
2023/06/21 08:02:49;;;;;;;0.70;0.70;;;;;;;;;;5072526;28;20427;-79
2023/06/21 08:05:16;;;;;;;0.70;0.70;;;;;;;;;;5072260;28;20607;-78
2023/06/21 08:07:43;;;;;;;1.00;0.90;;;;;;;;;;5070859;28;20509;-79
2023/06/21 08:10:10;;;;;;;0.80;0.70;;;;;;;;;;5069185;28;20453;-78
2023/06/21 08:12:36;;;;;;;0.70;0.60;;;;;;;;;;5054780;28;20451;-79
2023/06/21 08:15:05;;;;;;;0.80;0.80;;;;;;;;;;5066093;28;20562;-78
2023/06/21 08:17:31;;;;;;;1.50;1.40;;;;;;;;;;5067767;28;20439;-80
2023/06/21 08:20:00;;;;;;;1.10;1.03;;;;;;;;;;5065930;28;20455;-79
2023/06/21 08:22:28;;;;;;;1.50;1.40;;;;;;;;;;5063808;28;20458;-78
2023/06/21 08:24:55;;;;;;;0.90;0.90;;;;;;;;;;5063842;28;20435;-79
2023/06/21 08:27:23;;;;;;;0.80;0.70;;;;;;;;;;5055095;28;20530;-80
2023/06/21 08:29:50;;;;;;;0.80;0.70;;;;;;;;;;5063188;28;20446;-80
2023/06/21 08:32:19;;;;;;;0.80;0.73;;;;;;;;;;5064310;28;20459;-80
2023/06/21 08:34:46;;;;;;;0.73;0.67;;;;;;;;;;5073763;28;20559;-80
2023/06/21 08:37:21;;;;;;;0.80;0.80;;;;;;;;;;5053517;28;20524;-79
2023/06/21 08:39:52;;;;;;;1.10;1.00;;;;;;;;;;5062978;28;20431;-80
2023/06/21 08:42:19;;;;;;;0.80;0.80;;;;;;;;;;5067548;28;20475;-80
2023/06/21 08:44:46;;;;;;;0.77;0.60;;;;;;;;;;5073121;28;20490;-78
2023/06/21 08:47:15;;;;;;;0.70;0.63;;;;;;;;;;5068403;28;20523;-80
2023/06/21 08:49:43;;;;;;;1.07;0.97;;;;;;;;;;5057309;28;20924;-81
2023/06/21 08:52:15;;;;;;;1.30;1.20;;;;;;;;;;5063619;28;20519;-80
2023/06/21 08:54:45;;;;;;;1.10;1.00;;;;;;;;;;5060256;28;20468;-79
2023/06/21 08:57:17;;;;;;;0.93;0.83;;;;;;;;;;5069368;28;20804;-79
2023/06/21 08:59:47;;;;;;;1.00;1.00;;;;;;;;;;5055115;28;20432;-80
2023/06/21 09:02:20;;;;;;;0.80;0.80;;;;;;;;;;5061077;28;20461;-77
2023/06/21 09:04:51;;;;;;;0.80;0.70;;;;;;;;;;5059942;28;20434;-78
2023/06/21 09:07:20;;;;;;;1.60;1.50;;;;;;;;;;5061560;28;20468;-80
2023/06/21 09:09:50;;;;;;;0.87;0.87;;;;;;;;;;5073848;28;20435;-77
2023/06/21 09:12:17;;;;;;;0.70;0.60;;;;;;;;;;5069173;28;20450;-79
2023/06/21 09:14:44;;;;;;;1.40;1.00;;;;;;;;;;5068271;28;20463;-79
2023/06/21 09:17:13;;;;;;;0.77;0.73;;;;;;;;;;5066922;28;20439;-79
2023/06/21 09:19:41;;;;;;;1.30;1.20;;;;;;;;;;5063282;28;20490;-79
2023/06/21 09:22:08;;;;;;;1.50;1.40;;;;;;;;;;5055173;28;20494;-80
2023/06/21 09:24:35;;;;;;;0.80;0.70;;;;;;;;;;5065863;28;20472;-79
2023/06/21 09:27:04;;;;;;;0.80;0.80;;;;;;;;;;5049715;28;20518;-78
2023/06/21 09:29:31;;;;;;;1.03;0.93;;;;;;;;;;5070309;28;20442;-79
2023/06/21 09:31:57;;;;;;;0.83;0.83;;;;;;;;;;5064094;28;20482;-77
2023/06/21 09:34:24;;;;;;;1.17;1.07;;;;;;;;;;5055283;28;20474;-79
2023/06/21 09:36:53;;;;;;;1.10;0.90;;;;;;;;;;5048799;28;20463;-78
2023/06/21 09:39:22;;;;;;;0.87;0.87;;;;;;;;;;5063562;28;20530;-80
2023/06/21 09:41:51;;;;;;;1.63;1.53;;;;;;;;;;5066851;28;20467;-80
2023/06/21 09:44:20;;;;;;;0.77;0.70;;;;;;;;;;5060071;28;20432;-79
2023/06/21 09:46:47;;;;;;;1.27;1.17;;;;;;;;;;5060097;28;20438;-79
2023/06/21 09:49:16;;;;;;;1.23;0.97;;;;;;;;;;5059847;28;20435;-79
2023/06/21 09:51:44;;;;;;;1.37;1.27;;;;;;;;;;5055011;28;20505;-80
2023/06/21 09:54:11;;;;;;;0.80;0.80;;;;;;;;;;5060446;28;20963;-81
2023/06/21 09:56:39;;;;;;;1.10;1.00;;;;;;;;;;5066610;28;20446;-79
2023/06/21 09:59:12;;;;;;;0.80;0.80;;;;;;;;;;5068314;28;20470;-78
2023/06/21 10:01:44;;;;;;;1.30;0.90;;;;;;;;;;5056424;28;20450;-80
2023/06/21 10:04:12;;;;;;;1.53;1.43;;;;;;;;;;5060773;28;21012;-79
2023/06/21 10:06:46;;;;;;;1.63;1.53;;;;;;;;;;5051131;28;20490;-79
2023/06/21 10:09:14;;;;;;;0.70;0.70;;;;;;;;;;5068103;28;20496;-79
2023/06/21 10:11:43;;;;;;;0.80;0.70;;;;;;;;;;5074281;28;20459;-77
2023/06/21 10:14:20;;;;;;;0.90;0.80;;;;;;;;;;5046764;28;20871;-78
2023/06/21 10:16:50;;;;;;;0.80;0.80;;;;;;;;;;5066622;28;20458;-79
2023/06/21 10:19:19;;;;;;;0.70;0.70;;;;;;;;;;5050062;28;20909;-79
2023/06/21 10:21:48;;;;;;;1.30;1.13;;;;;;;;;;5049709;28;20495;-79
2023/06/21 10:24:15;;;;;;;1.33;1.23;;;;;;;;;;5043812;28;20440;-77
2023/06/21 10:26:45;;;;;;;0.80;0.80;;;;;;;;;;5069553;28;20830;-76
2023/06/21 10:29:12;;;;;;;2.97;1.37;;;;;;;;;;5061220;28;20436;-76
2023/06/21 10:31:40;;;;;;;0.73;0.60;;;;;;;;;;5062990;28;20459;-75
2023/06/21 10:34:15;;;;;;;2.37;2.27;;;;;;;;;;5069104;28;20799;-75
2023/06/21 10:36:46;;;;;;;1.73;1.60;;;;;;;;;;5064267;28;20471;-79
2023/06/21 10:39:13;;;;;;;0.80;0.80;;;;;;;;;;5067005;28;20889;-75
2023/06/21 10:41:42;;;;;;;1.03;0.93;;;;;;;;;;5057558;28;20444;-76
2023/06/21 10:44:09;;;;;;;1.00;0.83;;;;;;;;;;5059172;28;20454;-75
2023/06/21 10:46:37;;;;;;;1.37;1.20;;;;;;;;;;5059741;28;20436;-73
2023/06/21 10:49:05;;;;;;;0.87;0.80;;;;;;;;;;5059087;28;20451;-75
2023/06/21 10:51:34;;;;;;;1.27;1.17;;;;;;;;;;5058880;28;20549;-75
2023/06/21 10:54:01;;;;;;;1.30;1.20;;;;;;;;;;5056792;28;20934;-75
2023/06/21 10:56:29;;;;;;;0.70;0.60;;;;;;;;;;5068326;28;20494;-75
2023/06/21 10:58:56;;;;;;;1.43;1.33;;;;;;;;;;5058401;28;20535;-75
2023/06/21 11:01:22;;;;;;;0.87;0.87;;;;;;;;;;5055643;28;20471;-77
2023/06/21 11:03:50;;;;;;;0.90;0.90;;;;;;;;;;5059791;28;20436;-75
2023/06/21 11:06:20;;;;;;;1.17;1.07;;;;;;;;;;5058223;28;20466;-73
2023/06/21 11:08:49;;;;;;;0.70;0.57;;;;;;;;;;5050732;28;20518;-76
2023/06/21 11:11:29;;;;;;;1.50;1.40;;;;;;;;;;5066038;28;20432;-75
2023/06/21 11:13:56;;;;;;;0.70;0.60;;;;;;;;;;5060883;28;20478;-75
2023/06/21 11:16:24;;;;;;;1.50;1.30;;;;;;;;;;5059380;28;20972;-76
2023/06/21 11:18:59;;;;;;;1.33;1.23;;;;;;;;;;5058989;28;20431;-76
2023/06/21 11:21:40;;;;;;;2.10;0.93;;;;;;;;;;5057397;28;20535;-76
2023/06/21 11:24:10;;;;;;;0.80;0.80;;;;;;;;;;5056790;28;20482;-76
2023/06/21 11:26:57;;;;;;;1.10;1.00;;;;;;;;;;5059578;28;20431;-75
2023/06/21 11:29:25;;;;;;;0.80;0.80;;;;;;;;;;5064024;28;20530;-76
2023/06/21 11:32:09;;;;;;;1.83;1.43;;;;;;;;;;5066544;28;20924;-80
2023/06/21 11:34:49;;;;;;;1.00;0.80;;;;;;;;;;5066549;28;20436;-76
2023/06/21 11:37:32;;;;;;;2.23;1.93;;;;;;;;;;5059863;28;20439;-76
2023/06/21 11:40:02;;;;;;;1.17;1.07;;;;;;;;;;5057006;28;20427;-76
2023/06/21 11:42:32;;;;;;;2.30;0.90;;;;;;;;;;5055481;28;20423;-76
2023/06/21 11:45:14;;;;;;;1.10;1.00;;;;;;;;;;5058500;28;20481;-75
2023/06/21 11:47:42;;;;;;;1.00;0.90;;;;;;;;;;5060979;28;20520;-77
2023/06/21 11:50:13;;;;;;;1.00;0.90;;;;;;;;;;5067524;28;20435;-75
2023/06/21 11:52:39;;;;;;;1.17;1.07;;;;;;;;;;5057942;28;20542;-75
2023/06/21 11:55:16;;;;;;;2.30;1.70;;;;;;;;;;5060260;28;20554;-75
2023/06/21 11:57:45;;;;;;;1.00;0.90;;;;;;;;;;5059854;28;20442;-75
2023/06/21 12:00:14;;;;;;;1.27;1.17;;;;;;;;;;5056634;28;20431;-75
2023/06/21 12:02:41;;;;;;;1.10;1.00;;;;;;;;;;5063692;28;20435;-74
2023/06/21 12:05:08;;;;;;;1.87;1.77;;;;;;;;;;5064617;28;20455;-76
2023/06/21 12:07:35;;;;;;;1.70;1.07;;;;;;;;;;5058995;28;20455;-75
2023/06/21 12:10:03;;;;;;;1.10;0.97;;;;;;;;;;5064563;28;20436;-75
2023/06/21 12:12:31;;;;;;;0.80;0.70;;;;;;;;;;5059197;28;20492;-73
2023/06/21 12:14:58;;;;;;;1.00;0.87;;;;;;;;;;5058337;28;20479;-75
2023/06/21 12:17:25;;;;;;;0.80;0.80;;;;;;;;;;5069266;28;20462;-77
2023/06/21 12:19:52;;;;;;;1.17;1.07;;;;;;;;;;5072135;28;20846;-77
2023/06/21 12:22:22;;;;;;;2.47;1.03;;;;;;;;;;5069230;28;20472;-78
2023/06/21 12:24:52;;;;;;;0.80;0.70;;;;;;;;;;5068593;28;21018;-75
2023/06/21 12:27:18;;;;;;;0.80;0.60;;;;;;;;;;5069136;28;20427;-77
2023/06/21 12:29:50;;;;;;;2.07;0.90;;;;;;;;;;5059681;28;21000;-76
2023/06/21 12:32:18;;;;;;;3.17;1.40;;;;;;;;;;5073127;28;20474;-78
2023/06/21 12:34:44;;;;;;;0.80;0.80;;;;;;;;;;5069312;28;20516;-78
2023/06/21 12:37:17;;;;;;;0.70;0.57;;;;;;;;;;5069505;28;20491;-75
2023/06/21 12:39:48;;;;;;;1.00;0.90;;;;;;;;;;5067120;28;20450;-79
2023/06/21 12:42:14;;;;;;;0.80;0.60;;;;;;;;;;5069766;28;20443;-75
2023/06/21 12:44:42;;;;;;;0.90;0.80;;;;;;;;;;5060959;28;20449;-76
2023/06/21 12:47:09;;;;;;;3.23;0.93;;;;;;;;;;5064422;28;20547;-74
2023/06/21 12:49:36;;;;;;;0.80;0.70;;;;;;;;;;5054545;28;20470;-76
2023/06/21 12:52:03;;;;;;;1.17;1.07;;;;;;;;;;5059780;28;20804;-75
2023/06/21 12:54:30;;;;;;;1.50;1.33;;;;;;;;;;5059818;28;20439;-78
2023/06/21 12:56:59;;;;;;;0.80;0.67;;;;;;;;;;5064342;28;20468;-79
2023/06/21 12:59:26;;;;;;;0.97;0.70;;;;;;;;;;5064720;28;20442;-75
2023/06/21 13:01:55;;;;;;;0.80;0.60;;;;;;;;;;5070220;28;20454;-74
2023/06/21 13:04:25;;;;;;;1.27;1.17;;;;;;;;;;5066631;28;20519;-79
2023/06/21 13:06:52;;;;;;;0.90;0.60;;;;;;;;;;5063068;28;20483;-78
2023/06/21 13:09:21;;;;;;;1.30;1.20;;;;;;;;;;5070682;28;20928;-76
2023/06/21 13:11:47;;;;;;;0.80;0.63;;;;;;;;;;5068157;28;20440;-79
2023/06/21 13:14:14;;;;;;;0.90;0.70;;;;;;;;;;5074903;28;20512;-76
2023/06/21 13:16:40;;;;;;;1.30;1.13;;;;;;;;;;5071385;28;20469;-76
2023/06/21 13:19:07;;;;;;;1.33;0.90;;;;;;;;;;5069538;28;20479;-76
2023/06/21 13:21:36;;;;;;;0.80;0.77;;;;;;;;;;5063839;28;20412;-76
2023/06/21 13:24:04;;;;;;;0.80;0.80;;;;;;;;;;5058195;28;20808;-80
2023/06/21 13:26:31;;;;;;;0.80;0.70;;;;;;;;;;5069954;28;20426;-80
2023/06/21 13:28:58;;;;;;;0.70;0.60;;;;;;;;;;5074219;28;20442;-78
2023/06/21 13:31:25;;;;;;;1.00;0.80;;;;;;;;;;5062571;28;20439;-79
2023/06/21 13:33:54;;;;;;;1.57;0.93;;;;;;;;;;5072427;28;20525;-79
2023/06/21 13:36:22;;;;;;;1.53;1.43;;;;;;;;;;5069046;28;20477;-77
2023/06/21 13:38:49;;;;;;;0.80;0.80;;;;;;;;;;5066280;28;20490;-79
2023/06/21 13:41:17;;;;;;;0.80;0.70;;;;;;;;;;5069449;28;20451;-80
2023/06/21 13:43:44;;;;;;;0.70;0.57;;;;;;;;;;5052400;28;20495;-79
2023/06/21 13:46:11;;;;;;;0.73;0.60;;;;;;;;;;5062357;28;20486;-73
2023/06/21 13:48:38;;;;;;;1.00;0.90;;;;;;;;;;5063619;28;20438;-75
2023/06/21 13:51:05;;;;;;;0.80;0.70;;;;;;;;;;5069357;28;20460;-75
2023/06/21 13:53:31;;;;;;;1.63;1.00;;;;;;;;;;5065665;28;20463;-75
2023/06/21 13:55:59;;;;;;;0.70;0.60;;;;;;;;;;5068765;28;20498;-74
2023/06/21 13:58:26;;;;;;;0.80;0.70;;;;;;;;;;5066744;28;20473;-76
2023/06/21 14:00:53;;;;;;;0.80;0.70;;;;;;;;;;5061994;28;20943;-75
2023/06/21 14:03:21;;;;;;;1.10;1.00;;;;;;;;;;5043015;28;20510;-73
2023/06/21 14:05:49;;;;;;;1.00;0.90;;;;;;;;;;5068147;28;20551;-75
2023/06/21 14:08:16;;;;;;;1.10;0.93;;;;;;;;;;5048752;28;20459;-76
2023/06/21 14:10:44;;;;;;;1.57;1.47;;;;;;;;;;5067881;28;20493;-76
2023/06/21 14:13:13;;;;;;;0.80;0.77;;;;;;;;;;5063323;28;20432;-73
2023/06/21 14:15:40;;;;;;;0.70;0.60;;;;;;;;;;5069993;28;20499;-74
2023/06/21 14:18:07;;;;;;;1.00;0.90;;;;;;;;;;5051042;28;20531;-75
2023/06/21 14:20:34;;;;;;;0.70;0.60;;;;;;;;;;5060977;28;20440;-73
2023/06/21 14:23:01;;;;;;;1.00;0.90;;;;;;;;;;5067058;28;20456;-74
2023/06/21 14:25:29;;;;;;;1.03;0.93;;;;;;;;;;5068056;28;20936;-75
2023/06/21 14:27:56;;;;;;;0.80;0.80;;;;;;;;;;5064519;28;20442;-76
2023/06/21 14:30:24;;;;;;;1.10;1.00;;;;;;;;;;5075549;28;20931;-77
2023/06/21 14:32:50;;;;;;;0.80;0.70;;;;;;;;;;5060214;28;20795;-75
2023/06/21 14:35:18;;;;;;;0.80;0.63;;;;;;;;;;5044675;28;20504;-79
2023/06/21 14:37:47;;;;;;;0.70;0.60;;;;;;;;;;5062638;28;20455;-79
2023/06/21 14:40:14;;;;;;;0.80;0.77;;;;;;;;;;5066545;28;20470;-80
2023/06/21 14:42:41;;;;;;;2.20;1.57;;;;;;;;;;5065813;28;20436;-80
2023/06/21 14:45:10;;;;;;;0.80;0.60;;;;;;;;;;5060861;28;20523;-80
2023/06/21 14:47:39;;;;;;;0.80;0.60;;;;;;;;;;5053462;28;20455;-78
2023/06/21 14:50:09;;;;;;;1.73;0.83;;;;;;;;;;5060240;28;20428;-77